createdAt,value
2022-08-17T00:00:43.214Z,99.90
2022-08-17T00:05:51.953Z,99.90
2022-08-17T00:10:55.034Z,99.90
2022-08-17T00:16:01.891Z,99.90
2022-08-17T00:21:10.363Z,99.90
2022-08-17T00:26:14.284Z,99.90
2022-08-17T00:31:17.115Z,99.90
2022-08-17T00:36:20.014Z,99.90
2022-08-17T00:41:25.685Z,99.90
2022-08-17T00:46:36.003Z,99.90
2022-08-17T00:51:56.514Z,99.90
2022-08-17T00:57:09.190Z,99.90
2022-08-17T01:02:15.096Z,99.90
2022-08-17T01:07:19.456Z,99.90
2022-08-17T01:12:21.949Z,99.90
2022-08-17T01:17:24.301Z,99.90
2022-08-17T01:22:27.302Z,99.90
2022-08-17T01:27:30.383Z,99.90
2022-08-17T01:32:33.321Z,99.90
2022-08-17T01:37:39.018Z,99.90
2022-08-17T01:43:11.056Z,99.90
2022-08-17T01:48:14.318Z,99.90
2022-08-17T01:53:21.019Z,99.90
2022-08-17T01:58:24.076Z,99.90
2022-08-17T02:03:26.575Z,99.90
2022-08-17T02:08:37.366Z,99.90
2022-08-17T02:13:43.774Z,99.90
2022-08-17T02:18:46.611Z,99.90
2022-08-17T02:23:50.142Z,99.90
2022-08-17T02:28:53.571Z,99.90
2022-08-17T02:34:00.243Z,99.90
2022-08-17T02:39:08.965Z,99.90
2022-08-17T02:44:12.240Z,99.90
2022-08-17T02:49:15.771Z,99.90
2022-08-17T02:54:41.233Z,99.90
2022-08-17T02:59:48.289Z,99.90
2022-08-17T03:04:51.276Z,99.90
2022-08-17T03:09:54.012Z,99.90
2022-08-17T03:14:56.409Z,99.90
2022-08-17T03:19:59.076Z,99.90
2022-08-17T03:25:01.789Z,99.90
2022-08-17T03:30:10.722Z,99.90
2022-08-17T03:35:16.461Z,99.90
2022-08-17T03:40:55.760Z,99.90
2022-08-17T03:46:02.823Z,99.90
2022-08-17T03:51:23.795Z,99.90
2022-08-17T03:56:44.101Z,99.90
2022-08-17T04:01:49.714Z,99.90
2022-08-17T04:06:55.726Z,99.90
2022-08-17T04:12:01.334Z,99.90
2022-08-17T04:17:07.296Z,99.90
2022-08-17T04:22:09.650Z,99.90
2022-08-17T04:27:32.030Z,99.90
2022-08-17T04:33:06.259Z,99.90
2022-08-17T04:38:13.078Z,99.90
2022-08-17T04:43:19.026Z,99.90
2022-08-17T04:48:21.626Z,99.90
2022-08-17T04:53:25.153Z,99.90
2022-08-17T04:58:27.536Z,99.90
2022-08-17T05:03:31.137Z,99.90
2022-08-17T05:08:33.767Z,99.90
2022-08-17T05:13:36.143Z,99.90
2022-08-17T05:18:39.078Z,99.90
2022-08-17T05:23:43.308Z,99.90
2022-08-17T05:28:46.388Z,99.90
2022-08-17T05:33:49.916Z,99.90
2022-08-17T05:38:52.773Z,99.90
2022-08-17T05:43:56.546Z,99.90
2022-08-17T05:49:07.996Z,99.90
2022-08-17T05:54:39.700Z,99.90
2022-08-17T06:00:00.134Z,99.90
2022-08-17T06:05:08.640Z,99.90
2022-08-17T06:10:34.023Z,99.90
2022-08-17T06:15:58.710Z,99.90
2022-08-17T06:21:04.660Z,99.90
2022-08-17T06:26:17.478Z,99.90
2022-08-17T06:31:31.035Z,99.90
2022-08-17T06:37:11.146Z,99.90
2022-08-17T06:43:04.045Z,99.90
2022-08-17T06:48:33.687Z,99.90
2022-08-17T06:53:43.007Z,99.90
2022-08-17T06:58:46.000Z,99.90
2022-08-17T07:03:59.445Z,99.90
2022-08-17T07:09:25.551Z,99.90
2022-08-17T07:14:51.849Z,99.90
2022-08-17T07:20:04.486Z,99.90
2022-08-17T07:25:10.285Z,99.90
2022-08-17T07:30:27.072Z,99.90
2022-08-17T07:35:43.980Z,99.90
2022-08-17T07:41:05.314Z,99.90
2022-08-17T07:46:43.120Z,99.90
2022-08-17T07:51:48.277Z,99.90
2022-08-17T07:57:08.921Z,99.90
2022-08-17T08:02:14.890Z,99.90
2022-08-17T08:07:20.552Z,99.90
2022-08-17T08:12:42.395Z,98.60
2022-08-17T08:17:55.434Z,98.60
2022-08-17T08:23:20.643Z,96.50
2022-08-17T08:28:43.068Z,96.90
2022-08-17T08:33:56.264Z,95.10
2022-08-17T08:39:04.670Z,95.70
2022-08-17T08:45:00.953Z,95.90
2022-08-17T08:50:30.265Z,93.40
2022-08-17T08:55:55.938Z,95.00
2022-08-17T09:00:59.867Z,91.50
2022-08-17T09:06:37.872Z,91.00
2022-08-17T09:12:02.797Z,91.50
2022-08-17T09:17:30.206Z,91.10
2022-08-17T09:22:48.471Z,90.30
2022-08-17T09:28:00.629Z,83.30
2022-08-17T09:33:08.350Z,84.40
2022-08-17T09:38:32.660Z,79.20
2022-08-17T09:43:56.182Z,81.60
2022-08-17T09:49:01.552Z,79.00
2022-08-17T09:54:37.128Z,80.10
2022-08-17T09:59:53.357Z,76.60
2022-08-17T10:05:21.579Z,82.00
2022-08-17T10:10:29.688Z,78.70
2022-08-17T10:16:12.276Z,77.60
2022-08-17T10:21:35.222Z,75.30
2022-08-17T10:26:55.968Z,78.20
2022-08-17T10:32:05.287Z,80.30
2022-08-17T10:37:19.961Z,81.10
2022-08-17T10:42:33.828Z,81.50
2022-08-17T10:48:06.379Z,79.50
2022-08-17T10:53:09.744Z,78.10
2022-08-17T10:58:22.251Z,78.90
2022-08-17T11:03:25.604Z,77.00
2022-08-17T11:08:48.436Z,76.20
2022-08-17T11:14:24.772Z,76.80
2022-08-17T11:19:51.193Z,76.90
2022-08-17T11:24:54.442Z,72.70
2022-08-17T11:30:02.881Z,75.00
2022-08-17T11:35:20.791Z,72.70
2022-08-17T11:40:42.065Z,70.00
2022-08-17T11:46:12.072Z,72.20
2022-08-17T11:51:35.981Z,70.00
2022-08-17T11:57:06.399Z,68.90
2022-08-17T12:02:47.500Z,71.70
2022-08-17T12:08:15.227Z,74.50
2022-08-17T12:13:19.390Z,76.30
2022-08-17T12:18:28.318Z,72.90
2022-08-17T12:23:48.359Z,71.90
2022-08-17T12:28:58.820Z,71.50
2022-08-17T12:34:04.974Z,71.20
2022-08-17T12:39:14.387Z,68.40
2022-08-17T12:44:33.508Z,71.90
2022-08-17T12:49:38.228Z,69.60
2022-08-17T12:54:59.578Z,67.30
2022-08-17T13:00:12.420Z,70.80
2022-08-17T13:05:28.066Z,68.20
2022-08-17T13:10:33.864Z,68.20
2022-08-17T13:15:51.434Z,69.10
2022-08-17T13:20:57.800Z,70.30
2022-08-17T13:26:16.974Z,70.70
2022-08-17T13:31:36.373Z,68.50
2022-08-17T13:36:43.721Z,68.10
2022-08-17T13:41:49.817Z,69.80
2022-08-17T13:46:57.088Z,66.80
2022-08-17T13:51:59.921Z,69.80
2022-08-17T13:57:08.037Z,68.80
2022-08-17T14:02:12.279Z,69.80
2022-08-17T14:07:16.231Z,68.20
2022-08-17T14:12:21.887Z,71.60
2022-08-17T14:17:26.011Z,70.40
2022-08-17T14:22:34.033Z,71.00
2022-08-17T14:27:51.722Z,68.20
2022-08-17T14:32:56.478Z,68.30
2022-08-17T14:37:58.986Z,66.60
2022-08-17T14:43:01.416Z,67.00
2022-08-17T14:48:07.714Z,68.20
2022-08-17T14:53:13.509Z,67.60
2022-08-17T14:58:15.924Z,67.50
2022-08-17T15:03:18.833Z,67.40
2022-08-17T15:08:21.475Z,68.70
2022-08-17T15:13:26.530Z,68.80
2022-08-17T15:18:30.353Z,70.00
2022-08-17T15:23:32.903Z,69.40
2022-08-17T15:28:37.723Z,69.80
2022-08-17T15:33:40.132Z,69.90
2022-08-17T15:38:44.434Z,71.50
2022-08-17T15:43:50.148Z,71.30
2022-08-17T15:48:58.233Z,70.90
2022-08-17T15:54:18.797Z,71.90
2022-08-17T15:59:21.836Z,71.20
2022-08-17T16:04:29.955Z,71.20
2022-08-17T16:09:33.802Z,70.60
2022-08-17T16:14:36.495Z,71.30
2022-08-17T16:19:40.248Z,71.10
2022-08-17T16:24:56.817Z,71.60
2022-08-17T16:30:00.910Z,71.50
2022-08-17T16:35:10.665Z,71.40
2022-08-17T16:40:15.422Z,72.50
2022-08-17T16:45:21.243Z,70.90
2022-08-17T16:50:24.642Z,71.90
2022-08-17T16:55:27.110Z,73.30
2022-08-17T17:00:30.483Z,74.10
2022-08-17T17:05:51.366Z,72.70
2022-08-17T17:11:08.973Z,72.50
2022-08-17T17:16:19.054Z,73.00
2022-08-17T17:21:31.284Z,73.20
2022-08-17T17:26:55.415Z,76.40
2022-08-17T17:32:38.097Z,78.20
2022-08-17T17:37:43.210Z,79.60
2022-08-17T17:42:45.848Z,81.40
2022-08-17T17:47:48.360Z,77.80
2022-08-17T17:53:05.097Z,86.60
2022-08-17T17:58:10.253Z,90.20
2022-08-17T18:03:22.086Z,90.90
2022-08-17T18:09:19.483Z,91.80
2022-08-17T18:14:37.637Z,92.10
2022-08-17T18:19:41.509Z,93.60
2022-08-17T18:24:47.426Z,93.30
2022-08-17T18:29:53.623Z,95.80
2022-08-17T18:35:02.418Z,96.40
2022-08-17T18:40:16.975Z,96.80
2022-08-17T18:45:33.638Z,97.10
2022-08-17T18:50:43.900Z,98.20
2022-08-17T18:55:48.173Z,99.90
2022-08-17T19:00:51.786Z,99.90
2022-08-17T19:05:57.544Z,99.90
2022-08-17T19:11:05.545Z,99.90
2022-08-17T19:16:14.697Z,99.90
2022-08-17T19:21:52.421Z,99.90
2022-08-17T19:27:13.802Z,99.90
2022-08-17T19:32:20.319Z,99.90
2022-08-17T19:37:25.428Z,99.90
2022-08-17T19:42:52.578Z,99.90
2022-08-17T19:48:14.223Z,99.90
2022-08-17T19:53:54.165Z,99.90
2022-08-17T19:59:15.545Z,99.90
2022-08-17T20:04:41.111Z,99.90
2022-08-17T20:09:54.125Z,99.90
2022-08-17T20:15:03.032Z,99.90
2022-08-17T20:20:29.846Z,99.90
2022-08-17T20:25:46.311Z,99.90
2022-08-17T20:30:48.938Z,99.90
2022-08-17T20:36:06.515Z,99.90
2022-08-17T20:41:25.170Z,99.90
2022-08-17T20:46:36.480Z,99.90
2022-08-17T20:52:02.217Z,99.90
2022-08-17T20:57:09.207Z,99.90
2022-08-17T21:02:21.764Z,99.90
2022-08-17T21:07:43.499Z,99.90
2022-08-17T21:12:51.633Z,99.90
2022-08-17T21:18:18.605Z,99.90
2022-08-17T21:23:47.224Z,99.90
2022-08-17T21:29:31.515Z,99.90
2022-08-17T21:34:39.214Z,99.90
2022-08-17T21:40:02.336Z,99.90
2022-08-17T21:45:26.110Z,99.90
2022-08-17T21:50:28.586Z,99.90
2022-08-17T21:55:35.711Z,99.90
2022-08-17T22:00:38.354Z,99.90
2022-08-17T22:05:40.975Z,99.90
2022-08-17T22:10:45.594Z,99.90
2022-08-17T22:16:28.380Z,99.90
2022-08-17T22:21:29.749Z,99.90
2022-08-17T22:27:00.272Z,99.90
2022-08-17T22:32:02.943Z,99.90
2022-08-17T22:37:27.876Z,99.90
2022-08-17T22:42:30.536Z,99.90
2022-08-17T22:47:40.995Z,99.90
2022-08-17T22:53:03.657Z,99.90
2022-08-17T22:58:34.215Z,99.90
2022-08-17T23:03:54.263Z,99.90
2022-08-17T23:08:57.737Z,99.90
2022-08-17T23:14:00.214Z,99.90
2022-08-17T23:19:02.580Z,99.90
2022-08-17T23:24:09.167Z,99.90
2022-08-17T23:29:11.536Z,99.90
2022-08-17T23:34:15.209Z,99.90
2022-08-17T23:39:27.706Z,99.90
2022-08-17T23:44:31.206Z,99.90
2022-08-17T23:49:33.685Z,99.90
2022-08-17T23:54:43.724Z,99.90
2022-08-17T23:59:46.965Z,99.90
